createdAt,value
2022-08-17T00:05:49.062Z,99.90
2022-08-17T00:08:20.781Z,99.90
2022-08-17T00:10:49.658Z,99.90
2022-08-17T00:15:49.450Z,99.90
2022-08-17T00:18:53.778Z,99.90
2022-08-17T00:21:10.396Z,99.90
2022-08-17T00:23:44.375Z,99.90
2022-08-17T00:26:44.363Z,99.90
2022-08-17T00:29:07.729Z,99.90
2022-08-17T00:31:38.021Z,99.90
2022-08-17T00:34:10.090Z,99.90
2022-08-17T00:36:39.358Z,99.90
2022-08-17T00:39:07.571Z,99.90
2022-08-17T00:41:36.876Z,99.90
2022-08-17T00:44:12.286Z,99.90
2022-08-17T00:46:43.011Z,99.90
2022-08-17T00:49:14.056Z,99.90
2022-08-17T00:51:47.476Z,99.90
2022-08-17T00:54:23.811Z,99.90
2022-08-17T00:56:58.040Z,99.90
2022-08-17T00:59:30.918Z,99.90
2022-08-17T01:01:59.947Z,99.90
2022-08-17T01:04:31.466Z,99.90
2022-08-17T01:07:05.403Z,99.90
2022-08-17T01:09:34.085Z,99.90
2022-08-17T01:12:02.230Z,99.90
2022-08-17T01:14:31.573Z,99.90
2022-08-17T01:17:00.730Z,99.90
2022-08-17T01:19:34.264Z,99.90
2022-08-17T01:22:07.821Z,99.90
2022-08-17T01:24:39.490Z,99.90
2022-08-17T01:27:10.432Z,99.90
2022-08-17T01:29:44.333Z,99.90
2022-08-17T01:32:12.990Z,99.90
2022-08-17T01:34:43.562Z,99.90
2022-08-17T01:37:20.614Z,99.90
2022-08-17T01:39:53.712Z,99.90
2022-08-17T01:42:25.629Z,99.90
2022-08-17T01:44:58.981Z,99.90
2022-08-17T01:47:27.443Z,99.90
2022-08-17T01:49:58.160Z,99.90
2022-08-17T01:52:27.392Z,99.90
2022-08-17T01:54:57.471Z,99.90
2022-08-17T01:57:25.990Z,99.90
2022-08-17T01:59:54.438Z,99.90
2022-08-17T02:02:30.945Z,99.90
2022-08-17T02:05:01.727Z,99.90
2022-08-17T02:07:30.318Z,99.90
2022-08-17T02:10:00.376Z,99.90
2022-08-17T02:12:39.535Z,99.90
2022-08-17T02:15:17.162Z,99.90
2022-08-17T02:17:45.815Z,99.90
2022-08-17T02:20:14.439Z,99.90
2022-08-17T02:22:46.118Z,99.90
2022-08-17T02:25:19.283Z,99.90
2022-08-17T02:27:48.789Z,99.90
2022-08-17T02:31:00.912Z,99.90
2022-08-17T02:33:09.406Z,99.90
2022-08-17T02:35:39.919Z,99.90
2022-08-17T02:38:08.809Z,99.90
2022-08-17T02:40:40.570Z,99.90
2022-08-17T02:43:10.877Z,99.90
2022-08-17T02:45:39.669Z,99.90
2022-08-17T02:48:07.907Z,99.90
2022-08-17T02:50:36.279Z,99.90
2022-08-17T02:53:05.478Z,99.90
2022-08-17T02:55:36.626Z,99.90
2022-08-17T02:58:06.474Z,99.90
2022-08-17T03:00:38.174Z,99.90
2022-08-17T03:03:07.582Z,99.90
2022-08-17T03:05:38.424Z,99.90
2022-08-17T03:08:11.726Z,99.90
2022-08-17T03:10:42.243Z,99.90
2022-08-17T03:13:12.756Z,99.90
2022-08-17T03:15:41.550Z,99.90
2022-08-17T03:18:24.158Z,99.90
2022-08-17T03:20:53.937Z,99.90
2022-08-17T03:23:24.156Z,99.90
2022-08-17T03:25:54.071Z,99.90
2022-08-17T03:28:24.582Z,99.90
2022-08-17T03:30:53.247Z,99.90
2022-08-17T03:33:22.010Z,99.90
2022-08-17T03:35:50.254Z,99.90
2022-08-17T03:38:19.006Z,99.90
2022-08-17T03:40:57.381Z,99.90
2022-08-17T03:43:31.683Z,99.90
2022-08-17T03:46:28.144Z,99.90
2022-08-17T03:49:24.518Z,99.90
2022-08-17T03:52:10.214Z,99.90
2022-08-17T03:54:56.293Z,99.90
2022-08-17T03:57:25.852Z,99.90
2022-08-17T03:59:55.847Z,99.90
2022-08-17T04:02:26.830Z,99.90
2022-08-17T04:04:55.055Z,99.90
2022-08-17T04:07:25.853Z,99.90
2022-08-17T04:09:54.860Z,99.90
2022-08-17T04:12:25.581Z,99.90
2022-08-17T04:14:55.490Z,99.90
2022-08-17T04:17:25.662Z,99.90
2022-08-17T04:19:54.803Z,99.90
2022-08-17T04:22:32.537Z,99.90
2022-08-17T04:25:04.611Z,99.90
2022-08-17T04:27:35.053Z,99.90
2022-08-17T04:30:08.047Z,99.90
2022-08-17T04:33:04.430Z,99.90
2022-08-17T04:35:37.899Z,99.90
2022-08-17T04:38:06.254Z,99.90
2022-08-17T04:40:52.731Z,99.90
2022-08-17T04:43:25.921Z,99.90
2022-08-17T04:45:57.931Z,99.90
2022-08-17T04:48:35.557Z,99.90
2022-08-17T04:51:09.791Z,99.90
2022-08-17T04:53:39.093Z,99.90
2022-08-17T04:56:07.965Z,99.90
2022-08-17T04:58:44.402Z,99.90
2022-08-17T05:01:19.052Z,99.90
2022-08-17T05:03:54.258Z,99.90
2022-08-17T05:06:23.203Z,99.90
2022-08-17T05:08:51.459Z,99.90
2022-08-17T05:11:19.784Z,99.90
2022-08-17T05:13:50.122Z,99.90
2022-08-17T05:16:21.394Z,99.90
2022-08-17T05:18:52.384Z,99.90
2022-08-17T05:21:22.261Z,99.90
2022-08-17T05:23:54.983Z,99.90
2022-08-17T05:26:26.079Z,99.90
2022-08-17T05:28:57.163Z,99.90
2022-08-17T05:31:30.246Z,99.90
2022-08-17T05:33:58.805Z,99.90
2022-08-17T05:36:37.870Z,99.90
2022-08-17T05:39:17.041Z,99.90
2022-08-17T05:41:48.197Z,99.90
2022-08-17T05:44:17.113Z,99.90
2022-08-17T05:46:51.441Z,99.90
2022-08-17T05:49:25.413Z,99.90
2022-08-17T05:52:27.535Z,99.90
2022-08-17T05:55:11.330Z,99.90
2022-08-17T05:57:53.375Z,99.90
2022-08-17T06:00:30.883Z,99.90
2022-08-17T06:03:25.756Z,99.90
2022-08-17T06:06:07.183Z,99.90
2022-08-17T06:08:45.758Z,99.90
2022-08-17T06:11:23.645Z,99.90
2022-08-17T06:14:11.792Z,99.90
2022-08-17T06:16:44.353Z,99.90
2022-08-17T06:19:19.061Z,99.90
2022-08-17T06:21:52.387Z,99.90
2022-08-17T06:24:40.507Z,99.90
2022-08-17T06:27:14.713Z,99.90
2022-08-17T06:29:51.286Z,99.90
2022-08-17T06:32:19.581Z,99.90
2022-08-17T06:34:49.507Z,99.90
2022-08-17T06:37:31.981Z,99.90
2022-08-17T06:40:15.703Z,99.90
2022-08-17T06:43:05.860Z,99.90
2022-08-17T06:45:38.157Z,99.90
2022-08-17T06:48:14.130Z,99.90
2022-08-17T06:50:50.302Z,99.90
2022-08-17T06:53:24.549Z,99.90
2022-08-17T06:56:06.089Z,99.90
2022-08-17T06:58:35.845Z,99.90
2022-08-17T07:01:16.638Z,99.90
2022-08-17T07:03:54.609Z,99.90
2022-08-17T07:06:27.728Z,99.90
2022-08-17T07:09:02.411Z,99.90
2022-08-17T07:11:35.350Z,99.90
2022-08-17T07:14:19.483Z,99.90
2022-08-17T07:16:50.422Z,99.90
2022-08-17T07:19:23.317Z,99.90
2022-08-17T07:21:58.473Z,99.90
2022-08-17T07:24:37.341Z,99.90
2022-08-17T07:27:13.741Z,99.90
2022-08-17T07:29:46.410Z,99.90
2022-08-17T07:32:19.303Z,99.90
2022-08-17T07:35:22.210Z,99.90
2022-08-17T07:37:54.451Z,99.90
2022-08-17T07:40:27.686Z,99.90
2022-08-17T07:43:04.925Z,99.50
2022-08-17T07:45:52.432Z,92.80
2022-08-17T07:48:24.344Z,92.50
2022-08-17T07:50:53.238Z,91.60
2022-08-17T07:53:27.405Z,90.50
2022-08-17T07:55:56.039Z,92.00
2022-08-17T07:58:26.525Z,90.10
2022-08-17T08:01:09.816Z,90.20
2022-08-17T08:03:43.430Z,88.50
2022-08-17T08:06:22.417Z,85.70
2022-08-17T08:08:55.892Z,82.90
2022-08-17T08:11:33.830Z,78.40
2022-08-17T08:14:28.539Z,78.20
2022-08-17T08:17:00.215Z,77.50
2022-08-17T08:19:29.592Z,77.00
2022-08-17T08:22:05.573Z,72.80
2022-08-17T08:25:00.333Z,77.20
2022-08-17T08:27:38.623Z,81.70
2022-08-17T08:30:10.646Z,76.20
2022-08-17T08:32:57.534Z,77.70
2022-08-17T08:35:33.041Z,77.50
2022-08-17T08:38:09.937Z,76.30
2022-08-17T08:40:50.692Z,78.60
2022-08-17T08:43:28.165Z,79.20
2022-08-17T08:46:05.872Z,79.70
2022-08-17T08:49:12.653Z,77.20
2022-08-17T08:51:53.179Z,75.30
2022-08-17T08:54:34.402Z,74.10
2022-08-17T08:57:26.910Z,70.50
2022-08-17T09:00:12.581Z,71.40
2022-08-17T09:03:07.345Z,70.50
2022-08-17T09:05:52.803Z,71.60
2022-08-17T09:08:31.791Z,74.50
2022-08-17T09:11:06.228Z,69.90
2022-08-17T09:13:45.120Z,69.80
2022-08-17T09:16:17.211Z,66.90
2022-08-17T09:19:03.327Z,66.60
2022-08-17T09:21:47.930Z,69.10
2022-08-17T09:24:25.099Z,71.30
2022-08-17T09:26:58.928Z,73.10
2022-08-17T09:29:35.138Z,73.80
2022-08-17T09:32:06.401Z,71.40
2022-08-17T09:34:39.644Z,71.30
2022-08-17T09:37:21.755Z,68.70
2022-08-17T09:40:00.313Z,68.10
2022-08-17T09:42:33.240Z,68.60
2022-08-17T09:45:17.223Z,68.30
2022-08-17T09:47:51.298Z,67.30
2022-08-17T09:51:03.462Z,64.50
2022-08-17T09:53:16.600Z,65.50
2022-08-17T09:56:01.084Z,66.90
2022-08-17T09:58:40.646Z,66.20
2022-08-17T10:01:22.721Z,65.50
2022-08-17T10:04:11.710Z,65.70
2022-08-17T10:06:51.776Z,63.40
2022-08-17T10:09:30.027Z,60.80
2022-08-17T10:12:20.344Z,63.70
2022-08-17T10:15:22.952Z,61.70
2022-08-17T10:18:08.496Z,61.40
2022-08-17T10:20:44.917Z,58.70
2022-08-17T10:23:34.414Z,57.10
2022-08-17T10:26:16.538Z,58.00
2022-08-17T10:28:58.674Z,57.50
2022-08-17T10:31:35.671Z,56.00
2022-08-17T10:34:38.866Z,54.70
2022-08-17T10:37:28.297Z,54.40
2022-08-17T10:40:19.475Z,57.40
2022-08-17T10:42:52.038Z,57.70
2022-08-17T10:45:26.206Z,57.30
2022-08-17T10:48:04.659Z,58.60
2022-08-17T10:50:58.667Z,59.00
2022-08-17T10:53:55.477Z,59.60
2022-08-17T10:56:42.477Z,60.40
2022-08-17T10:59:10.751Z,58.70
2022-08-17T11:02:12.217Z,58.70
2022-08-17T11:05:13.225Z,59.50
2022-08-17T11:07:58.908Z,58.70
2022-08-17T11:10:55.666Z,58.70
2022-08-17T11:13:37.725Z,62.90
2022-08-17T11:16:25.055Z,56.80
2022-08-17T11:19:23.208Z,56.20
2022-08-17T11:22:31.327Z,58.00
2022-08-17T11:25:16.106Z,57.90
2022-08-17T11:27:48.623Z,57.30
2022-08-17T11:30:48.650Z,57.00
2022-08-17T11:33:54.218Z,57.20
2022-08-17T11:36:49.901Z,56.30
2022-08-17T11:39:35.530Z,54.40
2022-08-17T11:42:11.809Z,53.40
2022-08-17T11:44:53.597Z,52.50
2022-08-17T11:48:08.966Z,54.00
2022-08-17T11:51:03.906Z,48.70
2022-08-17T11:54:31.690Z,47.70
2022-08-17T11:57:00.083Z,48.30
2022-08-17T12:00:08.549Z,47.40
2022-08-17T12:02:49.029Z,47.40
2022-08-17T12:05:38.633Z,49.60
2022-08-17T12:08:17.775Z,48.10
2022-08-17T12:10:59.749Z,49.10
2022-08-17T12:13:38.628Z,49.10
2022-08-17T12:16:09.342Z,49.70
2022-08-17T12:18:42.026Z,49.50
2022-08-17T12:21:28.916Z,50.00
2022-08-17T12:24:02.054Z,49.60
2022-08-17T12:26:33.716Z,51.80
2022-08-17T12:29:03.936Z,50.30
2022-08-17T12:31:37.048Z,50.50
2022-08-17T12:34:06.939Z,49.30
2022-08-17T12:36:36.383Z,50.20
2022-08-17T12:39:12.926Z,48.30
2022-08-17T12:41:45.266Z,49.80
2022-08-17T12:44:16.511Z,47.30
2022-08-17T12:46:55.408Z,46.80
2022-08-17T12:49:31.081Z,47.30
2022-08-17T12:52:09.587Z,44.80
2022-08-17T12:54:50.392Z,45.30
2022-08-17T12:57:21.727Z,46.00
2022-08-17T12:59:53.462Z,43.10
2022-08-17T13:02:31.611Z,43.30
2022-08-17T13:05:02.650Z,43.70
2022-08-17T13:07:35.136Z,43.30
2022-08-17T13:10:04.650Z,44.70
2022-08-17T13:12:36.658Z,45.40
2022-08-17T13:15:05.877Z,46.60
2022-08-17T13:17:37.479Z,47.70
2022-08-17T13:20:16.160Z,48.60
2022-08-17T13:22:45.108Z,48.40
2022-08-17T13:25:18.216Z,48.80
2022-08-17T13:27:48.942Z,47.20
2022-08-17T13:30:23.866Z,49.30
2022-08-17T13:32:53.826Z,47.90
2022-08-17T13:35:39.972Z,48.50
2022-08-17T13:38:11.210Z,48.20
2022-08-17T13:40:48.400Z,48.70
2022-08-17T13:43:44.774Z,48.20
2022-08-17T13:46:20.401Z,49.20
2022-08-17T13:48:59.753Z,48.40
2022-08-17T13:51:45.970Z,49.00
2022-08-17T13:54:27.941Z,49.10
2022-08-17T13:57:04.569Z,48.70
2022-08-17T13:59:53.643Z,49.30
2022-08-17T14:02:27.703Z,50.80
2022-08-17T14:04:58.516Z,48.20
2022-08-17T14:07:35.127Z,48.90
2022-08-17T14:10:08.181Z,48.70
2022-08-17T14:12:38.765Z,49.30
2022-08-17T14:15:07.756Z,48.50
2022-08-17T14:17:38.837Z,48.40
2022-08-17T14:20:11.789Z,48.20
2022-08-17T14:22:44.945Z,49.40
2022-08-17T14:25:18.725Z,49.00
2022-08-17T14:27:52.893Z,48.90
2022-08-17T14:30:23.982Z,50.50
2022-08-17T14:32:52.814Z,49.60
2022-08-17T14:35:23.865Z,50.90
2022-08-17T14:37:53.894Z,51.40
2022-08-17T14:40:24.674Z,50.40
2022-08-17T14:42:55.470Z,51.50
2022-08-17T14:45:29.707Z,52.80
2022-08-17T14:48:02.714Z,52.10
2022-08-17T14:50:31.737Z,53.10
2022-08-17T14:53:04.121Z,52.50
2022-08-17T14:55:32.654Z,53.80
2022-08-17T14:58:01.227Z,53.10
2022-08-17T15:00:29.573Z,53.80
2022-08-17T15:02:59.406Z,54.70
2022-08-17T15:05:31.759Z,56.60
2022-08-17T15:08:02.454Z,55.80
2022-08-17T15:10:31.638Z,55.90
2022-08-17T15:13:00.563Z,56.20
2022-08-17T15:15:29.674Z,56.70
2022-08-17T15:17:59.154Z,56.40
2022-08-17T15:20:29.822Z,57.00
2022-08-17T15:22:59.208Z,57.60
2022-08-17T15:25:32.846Z,57.30
2022-08-17T15:28:02.030Z,58.50
2022-08-17T15:30:31.187Z,58.80
2022-08-17T15:33:00.656Z,58.20
2022-08-17T15:35:31.111Z,58.60
2022-08-17T15:38:06.491Z,59.20
2022-08-17T15:40:42.940Z,57.80
2022-08-17T15:43:14.219Z,58.00
2022-08-17T15:45:42.495Z,58.40
2022-08-17T15:48:18.494Z,59.60
2022-08-17T15:50:49.436Z,58.10
2022-08-17T15:53:17.633Z,60.90
2022-08-17T15:55:47.206Z,60.50
2022-08-17T15:58:15.364Z,58.70
2022-08-17T16:00:53.424Z,58.90
2022-08-17T16:04:01.553Z,58.80
2022-08-17T16:06:30.153Z,58.40
2022-08-17T16:08:59.717Z,58.50
2022-08-17T16:11:29.242Z,58.40
2022-08-17T16:13:57.515Z,59.70
2022-08-17T16:16:26.103Z,62.60
2022-08-17T16:18:58.656Z,62.60
2022-08-17T16:21:29.577Z,65.70
2022-08-17T16:24:01.504Z,64.70
2022-08-17T16:26:33.283Z,65.10
2022-08-17T16:29:03.618Z,65.80
2022-08-17T16:31:32.318Z,66.70
2022-08-17T16:34:17.644Z,66.70
2022-08-17T16:36:55.433Z,67.10
2022-08-17T16:39:26.464Z,67.70
2022-08-17T16:41:56.582Z,67.40
2022-08-17T16:44:26.156Z,68.50
2022-08-17T16:46:54.566Z,69.20
2022-08-17T16:49:36.260Z,69.10
2022-08-17T16:52:11.061Z,70.00
2022-08-17T16:54:41.381Z,71.70
2022-08-17T16:57:12.010Z,66.90
2022-08-17T16:59:42.748Z,67.90
2022-08-17T17:02:15.626Z,67.40
2022-08-17T17:04:51.217Z,69.40
2022-08-17T17:07:45.562Z,69.20
2022-08-17T17:10:19.948Z,70.90
2022-08-17T17:13:02.556Z,70.30
2022-08-17T17:15:44.346Z,67.80
2022-08-17T17:18:15.565Z,68.50
2022-08-17T17:20:51.790Z,69.10
2022-08-17T17:23:42.670Z,68.20
2022-08-17T17:26:23.703Z,69.00
2022-08-17T17:29:04.994Z,68.90
2022-08-17T17:31:39.769Z,68.10
2022-08-17T17:34:11.755Z,68.50
2022-08-17T17:36:45.339Z,67.50
2022-08-17T17:39:16.697Z,68.00
2022-08-17T17:41:48.981Z,67.40
2022-08-17T17:44:25.118Z,68.30
2022-08-17T17:46:58.054Z,67.30
2022-08-17T17:49:32.266Z,66.30
2022-08-17T17:52:13.391Z,66.90
2022-08-17T17:54:59.061Z,66.40
2022-08-17T17:57:39.825Z,66.70
2022-08-17T18:00:14.065Z,67.10
2022-08-17T18:03:02.466Z,68.40
2022-08-17T18:06:08.175Z,68.60
2022-08-17T18:08:52.887Z,69.80
2022-08-17T18:11:50.757Z,70.00
2022-08-17T18:14:34.799Z,70.40
2022-08-17T18:17:07.108Z,70.20
2022-08-17T18:19:38.840Z,71.30
2022-08-17T18:22:14.583Z,73.60
2022-08-17T18:24:45.741Z,74.40
2022-08-17T18:27:28.967Z,77.50
2022-08-17T18:29:59.067Z,82.80
2022-08-17T18:32:32.511Z,82.00
2022-08-17T18:35:27.730Z,82.60
2022-08-17T18:37:58.027Z,81.40
2022-08-17T18:40:30.903Z,83.80
2022-08-17T18:43:06.577Z,86.10
2022-08-17T18:45:42.279Z,85.10
2022-08-17T18:48:32.875Z,84.50
2022-08-17T18:51:06.228Z,83.90
2022-08-17T18:53:40.876Z,84.40
2022-08-17T18:56:26.282Z,87.50
2022-08-17T18:59:14.246Z,88.30
2022-08-17T19:01:53.327Z,90.60
2022-08-17T19:04:37.279Z,91.80
2022-08-17T19:07:28.542Z,92.80
2022-08-17T19:10:03.832Z,93.10
2022-08-17T19:12:39.012Z,93.10
2022-08-17T19:15:11.101Z,93.10
2022-08-17T19:17:49.564Z,93.10
2022-08-17T19:20:23.902Z,92.80
2022-08-17T19:23:01.662Z,93.00
2022-08-17T19:25:33.146Z,93.50
2022-08-17T19:28:15.385Z,94.00
2022-08-17T19:30:55.747Z,94.60
2022-08-17T19:33:24.232Z,95.20
2022-08-17T19:36:02.025Z,96.40
2022-08-17T19:38:41.289Z,97.30
2022-08-17T19:41:17.977Z,96.90
2022-08-17T19:44:11.648Z,96.90
2022-08-17T19:46:50.080Z,97.30
2022-08-17T19:49:41.251Z,97.70
2022-08-17T19:52:37.444Z,98.40
2022-08-17T19:55:10.526Z,99.90
2022-08-17T19:57:47.476Z,99.90
2022-08-17T20:00:19.285Z,99.90
2022-08-17T20:02:58.920Z,99.90
2022-08-17T20:05:30.226Z,99.90
2022-08-17T20:08:05.760Z,99.90
2022-08-17T20:10:45.206Z,99.90
2022-08-17T20:13:32.833Z,99.90
2022-08-17T20:16:03.892Z,99.90
2022-08-17T20:18:38.066Z,99.90
2022-08-17T20:21:19.810Z,99.90
2022-08-17T20:23:54.780Z,99.90
2022-08-17T20:26:27.536Z,99.90
2022-08-17T20:29:41.680Z,99.90
2022-08-17T20:32:25.153Z,99.90
2022-08-17T20:35:06.547Z,99.90
2022-08-17T20:37:44.780Z,99.90
2022-08-17T20:40:28.332Z,99.90
2022-08-17T20:42:59.822Z,99.90
2022-08-17T20:46:05.545Z,99.90
2022-08-17T20:48:39.663Z,99.90
2022-08-17T20:51:32.877Z,99.90
2022-08-17T20:54:23.244Z,99.90
2022-08-17T20:57:01.357Z,99.90
2022-08-17T21:00:13.799Z,99.90
2022-08-17T21:02:45.968Z,99.90
2022-08-17T21:05:39.019Z,99.90
2022-08-17T21:08:16.022Z,99.90
2022-08-17T21:10:46.851Z,99.90
2022-08-17T21:13:42.444Z,99.90
2022-08-17T21:16:29.500Z,99.90
2022-08-17T21:19:11.058Z,99.90
2022-08-17T21:21:47.951Z,99.90
2022-08-17T21:24:27.446Z,99.90
2022-08-17T21:27:05.616Z,99.90
2022-08-17T21:29:40.365Z,99.90
2022-08-17T21:32:24.214Z,99.90
2022-08-17T21:35:28.315Z,99.90
2022-08-17T21:43:01.670Z,99.90
2022-08-17T21:45:41.800Z,99.90
2022-08-17T21:48:19.553Z,99.90
2022-08-17T21:50:59.171Z,99.90
2022-08-17T21:53:35.377Z,99.90
2022-08-17T21:56:04.681Z,99.90
2022-08-17T21:58:39.448Z,99.90
2022-08-17T22:01:22.662Z,99.90
2022-08-17T22:04:01.805Z,99.90
2022-08-17T22:06:35.149Z,99.90
2022-08-17T22:09:12.337Z,99.90
2022-08-17T22:11:55.470Z,99.90
2022-08-17T22:14:27.202Z,99.90
2022-08-17T22:17:24.894Z,99.90
2022-08-17T22:19:56.891Z,99.90
2022-08-17T22:22:30.494Z,99.90
2022-08-17T22:25:03.387Z,99.90
2022-08-17T22:27:55.488Z,99.90
2022-08-17T22:30:33.620Z,99.90
2022-08-17T22:33:31.313Z,99.90
2022-08-17T22:36:29.014Z,99.90
2022-08-17T22:38:58.815Z,99.90
2022-08-17T22:41:44.526Z,99.90
2022-08-17T22:44:21.082Z,99.90
2022-08-17T22:46:57.503Z,99.90
2022-08-17T22:49:36.579Z,99.90
2022-08-17T22:52:09.797Z,99.90
2022-08-17T22:54:55.963Z,99.90
2022-08-17T22:57:48.561Z,99.90
2022-08-17T23:00:32.061Z,99.90
2022-08-17T23:03:13.936Z,99.90
2022-08-17T23:05:46.170Z,99.90
2022-08-17T23:08:22.166Z,99.90
2022-08-17T23:10:50.864Z,99.90
2022-08-17T23:13:21.305Z,99.90
2022-08-17T23:15:51.070Z,99.90
2022-08-17T23:18:19.695Z,99.90
2022-08-17T23:20:49.410Z,99.90
2022-08-17T23:23:23.602Z,99.90
2022-08-17T23:25:52.225Z,99.90
2022-08-17T23:28:21.599Z,99.90
2022-08-17T23:30:50.394Z,99.90
2022-08-17T23:33:21.620Z,99.90
2022-08-17T23:35:51.251Z,99.90
2022-08-17T23:38:19.394Z,99.90
2022-08-17T23:40:47.661Z,99.90
2022-08-17T23:43:25.284Z,99.90
2022-08-17T23:45:57.620Z,99.90
2022-08-17T23:48:27.812Z,99.90
2022-08-17T23:51:09.179Z,99.90
2022-08-17T23:53:38.379Z,99.90
2022-08-17T23:56:10.493Z,99.90
2022-08-17T23:58:39.739Z,99.90
